ニューヨーク/JFK の空港の天気 - METARとTAF

ジョン・F・ケネディ国際空港 ( KJFK / JFK ) - アメリカ ニューヨーク州ニューヨーク
飛行場実況気象(Metar)
観測時間10/28 12:51 EDT (10/28 16:51 UTC)
風向・風速北西 4m/s
視程1600m
天気現象弱い霧雨 もや
全天を覆う雲 雲底高度 180m
気温13.3℃
湿度97%
気圧1015.8hPa
METARKJFK 281651Z 32008KT 1SM R04R/P6000FT -DZ BR OVC006 13/13 A3000 RMK AO2 SFC VIS 2 1/2 DZE07B47RAB07E47 SLP158 CIG 004V008 P0001 T01330128
過去の天気等 Google飛行場航空写真 Wunderground天気予報

過去48時間のMETAR

飛行場予報(TAF)
発表時間: 10/28 10:32 EDT (10/28 14:32 UTC)
予報対象時間: 28日11時 EDT ~ 29日14時 EDT
風向・風速不定 2m/s
視程4830m
天気現象弱い霧雨 もや
全天の8割程度の雲 雲底高度 150m
全天を覆う雲 雲底高度 370m
28日12時 EDT から
風向・風速西 3m/s
視程10km以上
天気現象もや
全天の8割程度の雲 雲底高度 240m
全天の8割程度の雲 雲底高度 370m
全天の8割程度の雲 雲底高度 610m
28日12時 EDT ~ 28日14時 EDT に一時的に
全天の4割程度の雲 雲底高度 240m
全天の8割程度の雲 雲底高度 370m
全天の8割程度の雲 雲底高度 610m
28日14時 EDT から
風向・風速西 4m/s
視程10km以上
全天の4割程度の雲 雲底高度 610m
全天の8割程度の雲 雲底高度 1830m
28日23時 EDT から
風向・風速北西 4m/s
視程10km以上
全天の8割程度の雲 雲底高度 2130m
29日5時 EDT から
風向・風速北 3m/s
視程10km以上
全天の8割程度の雲 雲底高度 1830m
29日10時 EDT から
風向・風速北東 4m/s
視程4830m
天気現象弱い雨 もや
全天の4割程度の雲 雲底高度 240m
全天の8割程度の雲 雲底高度 460m
全天を覆う雲 雲底高度 760m
KJFK 281432Z 2815/2918 VRB04KT 3SM -DZ BR BKN005 OVC012
FM281600 26005KT 6SM BR BKN008 BKN012 BKN020
TEMPO 2816/2818 SCT008 BKN012 BKN020
FM281800 27008KT P6SM SCT020 BKN060
FM290300 31007KT P6SM BKN070
FM290900 01005KT P6SM BKN060
FM291400 04008KT 3SM -RA BR SCT008 BKN015 OVC025